<?xml version="1.0" encoding="UTF-8" standalone="no" ?>
<gpx xmlns="http://www.topografix.com/GPX/1/1" xmlns:xsi="http://www.w3.org/2001/XMLSchema-instance" xsi:schemaLocation="http://www.topografix.com/GPX/1/1 http://www.topografix.com/GPX/1/1/gpx.xsd" version="1.1" creator="VisuGPX - https://www.visugpx.com">
  <metadata>
    <name>Les Dolmens de Vailhauquès</name>
    <desc><![CDATA[#fait
Des chemins privés, et pierriers]]></desc>
  </metadata>
  <wpt lat="43.68215" lon="3.69172">
    <ele>168</ele>
    <name><![CDATA[Parking - Station de pompage]]></name>
  </wpt>
  <wpt lat="43.68009" lon="3.69709">
    <ele>155</ele>
    <name><![CDATA[Section]]></name>
  </wpt>
  <wpt lat="43.6629" lon="3.70106">
    <ele>145</ele>
    <name><![CDATA[Embranchement]]></name>
  </wpt>
  <wpt lat="43.6696" lon="3.70881">
    <ele>265</ele>
    <name><![CDATA[Section ]]></name>
  </wpt>
  <wpt lat="43.67392" lon="3.70856">
    <ele>288</ele>
    <name><![CDATA[Ancien mur]]></name>
  </wpt>
  <wpt lat="43.68175" lon="3.70896">
    <ele>282</ele>
    <name><![CDATA[Section]]></name>
  </wpt>
  <wpt lat="43.68284" lon="3.71156">
    <ele>277</ele>
    <name><![CDATA[Embranchement]]></name>
  </wpt>
  <wpt lat="43.68106" lon="3.70562">
    <ele>275</ele>
    <name><![CDATA[Chemin]]></name>
  </wpt>
  <wpt lat="43.68118" lon="3.70473">
    <ele>254</ele>
    <name><![CDATA[Ancien mur et ses éboulis]]></name>
  </wpt>
  <wpt lat="43.68058" lon="3.7008">
    <ele>185</ele>
    <name><![CDATA[Section]]></name>
  </wpt>
  <wpt lat="43.68214" lon="3.69178">
    <ele>167</ele>
    <name><![CDATA[Parking - Station de pompage]]></name>
  </wpt>
  <trk>
    <name><![CDATA[Les Dolmens de Vailhauquès]]></name>
    <trkseg>
      <trkpt lat="43.68215" lon="3.69172">
        <ele>168</ele>
        <time>2022-08-03T07:08:59+02:00</time>
      </trkpt>
      <trkpt lat="43.68202" lon="3.6919">
        <ele>167</ele>
        <time>2022-08-03T07:09:29+02:00</time>
      </trkpt>
      <trkpt lat="43.68189" lon="3.69209">
        <ele>167</ele>
        <time>2022-08-03T07:09:43+02:00</time>
      </trkpt>
      <trkpt lat="43.68184" lon="3.69235">
        <ele>166</ele>
        <time>2022-08-03T07:09:57+02:00</time>
      </trkpt>
      <trkpt lat="43.68189" lon="3.69257">
        <ele>165</ele>
        <time>2022-08-03T07:10:17+02:00</time>
      </trkpt>
      <trkpt lat="43.68205" lon="3.69272">
        <ele>163</ele>
        <time>2022-08-03T07:10:34+02:00</time>
      </trkpt>
      <trkpt lat="43.68216" lon="3.69295">
        <ele>162</ele>
        <time>2022-08-03T07:10:50+02:00</time>
      </trkpt>
      <trkpt lat="43.68223" lon="3.69319">
        <ele>162</ele>
        <time>2022-08-03T07:11:05+02:00</time>
      </trkpt>
      <trkpt lat="43.68227" lon="3.69345">
        <ele>162</ele>
        <time>2022-08-03T07:11:20+02:00</time>
      </trkpt>
      <trkpt lat="43.68237" lon="3.69366">
        <ele>160</ele>
        <time>2022-08-03T07:11:33+02:00</time>
      </trkpt>
      <trkpt lat="43.68253" lon="3.6938">
        <ele>160</ele>
        <time>2022-08-03T07:11:47+02:00</time>
      </trkpt>
      <trkpt lat="43.6827" lon="3.69392">
        <ele>160</ele>
        <time>2022-08-03T07:12:01+02:00</time>
      </trkpt>
      <trkpt lat="43.68288" lon="3.69401">
        <ele>160</ele>
        <time>2022-08-03T07:12:15+02:00</time>
      </trkpt>
      <trkpt lat="43.68306" lon="3.69412">
        <ele>160</ele>
        <time>2022-08-03T07:12:30+02:00</time>
      </trkpt>
      <trkpt lat="43.68324" lon="3.69416">
        <ele>159</ele>
        <time>2022-08-03T07:12:44+02:00</time>
      </trkpt>
      <trkpt lat="43.68341" lon="3.69424">
        <ele>158</ele>
        <time>2022-08-03T07:12:59+02:00</time>
      </trkpt>
      <trkpt lat="43.68356" lon="3.6944">
        <ele>156</ele>
        <time>2022-08-03T07:13:15+02:00</time>
      </trkpt>
      <trkpt lat="43.6837" lon="3.69459">
        <ele>155</ele>
        <time>2022-08-03T07:13:30+02:00</time>
      </trkpt>
      <trkpt lat="43.6838" lon="3.69481">
        <ele>155</ele>
        <time>2022-08-03T07:13:45+02:00</time>
      </trkpt>
      <trkpt lat="43.68373" lon="3.69508">
        <ele>155</ele>
        <time>2022-08-03T07:14:08+02:00</time>
      </trkpt>
      <trkpt lat="43.68353" lon="3.69504">
        <ele>155</ele>
        <time>2022-08-03T07:14:24+02:00</time>
      </trkpt>
      <trkpt lat="43.68334" lon="3.6951">
        <ele>155</ele>
        <time>2022-08-03T07:14:39+02:00</time>
      </trkpt>
      <trkpt lat="43.68316" lon="3.69519">
        <ele>155</ele>
        <time>2022-08-03T07:14:53+02:00</time>
      </trkpt>
      <trkpt lat="43.683" lon="3.69532">
        <ele>155</ele>
        <time>2022-08-03T07:15:06+02:00</time>
      </trkpt>
      <trkpt lat="43.68288" lon="3.69552">
        <ele>155</ele>
        <time>2022-08-03T07:15:20+02:00</time>
      </trkpt>
      <trkpt lat="43.68277" lon="3.69574">
        <ele>155</ele>
        <time>2022-08-03T07:15:34+02:00</time>
      </trkpt>
      <trkpt lat="43.68267" lon="3.69595">
        <ele>155</ele>
        <time>2022-08-03T07:15:49+02:00</time>
      </trkpt>
      <trkpt lat="43.68252" lon="3.69613">
        <ele>155</ele>
        <time>2022-08-03T07:16:04+02:00</time>
      </trkpt>
      <trkpt lat="43.68233" lon="3.6961">
        <ele>155</ele>
        <time>2022-08-03T07:16:20+02:00</time>
      </trkpt>
      <trkpt lat="43.68215" lon="3.69603">
        <ele>155</ele>
        <time>2022-08-03T07:16:35+02:00</time>
      </trkpt>
      <trkpt lat="43.68194" lon="3.69606">
        <ele>155</ele>
        <time>2022-08-03T07:16:50+02:00</time>
      </trkpt>
      <trkpt lat="43.68177" lon="3.69616">
        <ele>155</ele>
        <time>2022-08-03T07:17:04+02:00</time>
      </trkpt>
      <trkpt lat="43.68159" lon="3.69625">
        <ele>155</ele>
        <time>2022-08-03T07:17:19+02:00</time>
      </trkpt>
      <trkpt lat="43.68141" lon="3.69635">
        <ele>155</ele>
        <time>2022-08-03T07:17:33+02:00</time>
      </trkpt>
      <trkpt lat="43.68126" lon="3.6965">
        <ele>155</ele>
        <time>2022-08-03T07:17:46+02:00</time>
      </trkpt>
      <trkpt lat="43.68108" lon="3.6966">
        <ele>155</ele>
        <time>2022-08-03T07:18:00+02:00</time>
      </trkpt>
      <trkpt lat="43.68091" lon="3.69671">
        <ele>155</ele>
        <time>2022-08-03T07:18:14+02:00</time>
      </trkpt>
      <trkpt lat="43.68074" lon="3.69682">
        <ele>155</ele>
        <time>2022-08-03T07:18:29+02:00</time>
      </trkpt>
      <trkpt lat="43.68056" lon="3.69694">
        <ele>155</ele>
        <time>2022-08-03T07:18:44+02:00</time>
      </trkpt>
      <trkpt lat="43.68038" lon="3.697">
        <ele>155</ele>
        <time>2022-08-03T07:18:58+02:00</time>
      </trkpt>
      <trkpt lat="43.6802" lon="3.69707">
        <ele>155</ele>
        <time>2022-08-03T07:19:13+02:00</time>
      </trkpt>
      <trkpt lat="43.68009" lon="3.69709">
        <ele>155</ele>
        <time>2022-08-03T07:19:21+02:00</time>
      </trkpt>
      <trkpt lat="43.67992" lon="3.69717">
        <ele>155</ele>
        <time>2022-08-03T07:19:35+02:00</time>
      </trkpt>
      <trkpt lat="43.67976" lon="3.69733">
        <ele>155</ele>
        <time>2022-08-03T07:19:51+02:00</time>
      </trkpt>
      <trkpt lat="43.6796" lon="3.69749">
        <ele>155</ele>
        <time>2022-08-03T07:20:07+02:00</time>
      </trkpt>
      <trkpt lat="43.67943" lon="3.69762">
        <ele>155</ele>
        <time>2022-08-03T07:20:23+02:00</time>
      </trkpt>
      <trkpt lat="43.67927" lon="3.69777">
        <ele>155</ele>
        <time>2022-08-03T07:20:37+02:00</time>
      </trkpt>
      <trkpt lat="43.67908" lon="3.69787">
        <ele>155</ele>
        <time>2022-08-03T07:20:53+02:00</time>
      </trkpt>
      <trkpt lat="43.6789" lon="3.6979">
        <ele>155</ele>
        <time>2022-08-03T07:21:07+02:00</time>
      </trkpt>
      <trkpt lat="43.67871" lon="3.69786">
        <ele>155</ele>
        <time>2022-08-03T07:21:24+02:00</time>
      </trkpt>
      <trkpt lat="43.67851" lon="3.69791">
        <ele>155</ele>
        <time>2022-08-03T07:21:37+02:00</time>
      </trkpt>
      <trkpt lat="43.67836" lon="3.69808">
        <ele>155</ele>
        <time>2022-08-03T07:21:52+02:00</time>
      </trkpt>
      <trkpt lat="43.67837" lon="3.69834">
        <ele>156</ele>
        <time>2022-08-03T07:22:07+02:00</time>
      </trkpt>
      <trkpt lat="43.67844" lon="3.69859">
        <ele>159</ele>
        <time>2022-08-03T07:22:25+02:00</time>
      </trkpt>
      <trkpt lat="43.67846" lon="3.69886">
        <ele>161</ele>
        <time>2022-08-03T07:22:43+02:00</time>
      </trkpt>
      <trkpt lat="43.67845" lon="3.69913">
        <ele>163</ele>
        <time>2022-08-03T07:23:01+02:00</time>
      </trkpt>
      <trkpt lat="43.67846" lon="3.69939">
        <ele>165</ele>
        <time>2022-08-03T07:23:18+02:00</time>
      </trkpt>
      <trkpt lat="43.67847" lon="3.69965">
        <ele>166</ele>
        <time>2022-08-03T07:23:35+02:00</time>
      </trkpt>
      <trkpt lat="43.67848" lon="3.6999">
        <ele>167</ele>
        <time>2022-08-03T07:23:52+02:00</time>
      </trkpt>
      <trkpt lat="43.67847" lon="3.70018">
        <ele>168</ele>
        <time>2022-08-03T07:24:09+02:00</time>
      </trkpt>
      <trkpt lat="43.67847" lon="3.70044">
        <ele>170</ele>
        <time>2022-08-03T07:24:25+02:00</time>
      </trkpt>
      <trkpt lat="43.67841" lon="3.70067">
        <ele>170</ele>
        <time>2022-08-03T07:24:41+02:00</time>
      </trkpt>
      <trkpt lat="43.67829" lon="3.70088">
        <ele>172</ele>
        <time>2022-08-03T07:24:58+02:00</time>
      </trkpt>
      <trkpt lat="43.67815" lon="3.70098">
        <ele>173</ele>
        <time>2022-08-03T07:25:15+02:00</time>
      </trkpt>
      <trkpt lat="43.67797" lon="3.70086">
        <ele>173</ele>
        <time>2022-08-03T07:25:31+02:00</time>
      </trkpt>
      <trkpt lat="43.67778" lon="3.70082">
        <ele>174</ele>
        <time>2022-08-03T07:25:47+02:00</time>
      </trkpt>
      <trkpt lat="43.67759" lon="3.70082">
        <ele>175</ele>
        <time>2022-08-03T07:26:03+02:00</time>
      </trkpt>
      <trkpt lat="43.6774" lon="3.70082">
        <ele>175</ele>
        <time>2022-08-03T07:26:18+02:00</time>
      </trkpt>
      <trkpt lat="43.67721" lon="3.7008">
        <ele>176</ele>
        <time>2022-08-03T07:26:34+02:00</time>
      </trkpt>
      <trkpt lat="43.67701" lon="3.70079">
        <ele>176</ele>
        <time>2022-08-03T07:26:50+02:00</time>
      </trkpt>
      <trkpt lat="43.67682" lon="3.70078">
        <ele>175</ele>
        <time>2022-08-03T07:27:05+02:00</time>
      </trkpt>
      <trkpt lat="43.67663" lon="3.70077">
        <ele>175</ele>
        <time>2022-08-03T07:27:20+02:00</time>
      </trkpt>
      <trkpt lat="43.67644" lon="3.70066">
        <ele>174</ele>
        <time>2022-08-03T07:27:36+02:00</time>
      </trkpt>
      <trkpt lat="43.67625" lon="3.70061">
        <ele>173</ele>
        <time>2022-08-03T07:27:51+02:00</time>
      </trkpt>
      <trkpt lat="43.67606" lon="3.7006">
        <ele>173</ele>
        <time>2022-08-03T07:28:05+02:00</time>
      </trkpt>
      <trkpt lat="43.67587" lon="3.70065">
        <ele>174</ele>
        <time>2022-08-03T07:28:19+02:00</time>
      </trkpt>
      <trkpt lat="43.67568" lon="3.70072">
        <ele>175</ele>
        <time>2022-08-03T07:28:34+02:00</time>
      </trkpt>
      <trkpt lat="43.67552" lon="3.70084">
        <ele>176</ele>
        <time>2022-08-03T07:28:47+02:00</time>
      </trkpt>
      <trkpt lat="43.67534" lon="3.70095">
        <ele>177</ele>
        <time>2022-08-03T07:29:01+02:00</time>
      </trkpt>
      <trkpt lat="43.67515" lon="3.70102">
        <ele>177</ele>
        <time>2022-08-03T07:29:16+02:00</time>
      </trkpt>
      <trkpt lat="43.67495" lon="3.70097">
        <ele>175</ele>
        <time>2022-08-03T07:29:32+02:00</time>
      </trkpt>
      <trkpt lat="43.67476" lon="3.70094">
        <ele>173</ele>
        <time>2022-08-03T07:29:47+02:00</time>
      </trkpt>
      <trkpt lat="43.67456" lon="3.70092">
        <ele>173</ele>
        <time>2022-08-03T07:30:03+02:00</time>
      </trkpt>
      <trkpt lat="43.67437" lon="3.70091">
        <ele>172</ele>
        <time>2022-08-03T07:30:18+02:00</time>
      </trkpt>
      <trkpt lat="43.67422" lon="3.70097">
        <ele>173</ele>
        <time>2022-08-03T07:30:36+02:00</time>
      </trkpt>
      <trkpt lat="43.67403" lon="3.70099">
        <ele>173</ele>
        <time>2022-08-03T07:31:05+02:00</time>
      </trkpt>
      <trkpt lat="43.67384" lon="3.70094">
        <ele>172</ele>
        <time>2022-08-03T07:31:20+02:00</time>
      </trkpt>
      <trkpt lat="43.67365" lon="3.70091">
        <ele>172</ele>
        <time>2022-08-03T07:31:36+02:00</time>
      </trkpt>
      <trkpt lat="43.67346" lon="3.7009">
        <ele>171</ele>
        <time>2022-08-03T07:31:50+02:00</time>
      </trkpt>
      <trkpt lat="43.67327" lon="3.70096">
        <ele>171</ele>
        <time>2022-08-03T07:32:05+02:00</time>
      </trkpt>
      <trkpt lat="43.67308" lon="3.701">
        <ele>170</ele>
        <time>2022-08-03T07:32:19+02:00</time>
      </trkpt>
      <trkpt lat="43.67289" lon="3.70096">
        <ele>169</ele>
        <time>2022-08-03T07:32:33+02:00</time>
      </trkpt>
      <trkpt lat="43.67271" lon="3.70091">
        <ele>169</ele>
        <time>2022-08-03T07:32:46+02:00</time>
      </trkpt>
      <trkpt lat="43.67252" lon="3.70088">
        <ele>168</ele>
        <time>2022-08-03T07:33:00+02:00</time>
      </trkpt>
      <trkpt lat="43.67233" lon="3.70082">
        <ele>167</ele>
        <time>2022-08-03T07:33:16+02:00</time>
      </trkpt>
      <trkpt lat="43.67216" lon="3.70069">
        <ele>166</ele>
        <time>2022-08-03T07:33:32+02:00</time>
      </trkpt>
      <trkpt lat="43.67198" lon="3.70063">
        <ele>164</ele>
        <time>2022-08-03T07:33:46+02:00</time>
      </trkpt>
      <trkpt lat="43.67178" lon="3.70065">
        <ele>163</ele>
        <time>2022-08-03T07:34:10+02:00</time>
      </trkpt>
      <trkpt lat="43.67158" lon="3.70067">
        <ele>163</ele>
        <time>2022-08-03T07:34:28+02:00</time>
      </trkpt>
      <trkpt lat="43.67139" lon="3.7007">
        <ele>162</ele>
        <time>2022-08-03T07:34:46+02:00</time>
      </trkpt>
      <trkpt lat="43.67121" lon="3.70074">
        <ele>161</ele>
        <time>2022-08-03T07:35:01+02:00</time>
      </trkpt>
      <trkpt lat="43.67102" lon="3.70082">
        <ele>161</ele>
        <time>2022-08-03T07:35:17+02:00</time>
      </trkpt>
      <trkpt lat="43.67084" lon="3.70091">
        <ele>162</ele>
        <time>2022-08-03T07:35:32+02:00</time>
      </trkpt>
      <trkpt lat="43.67065" lon="3.70095">
        <ele>161</ele>
        <time>2022-08-03T07:35:48+02:00</time>
      </trkpt>
      <trkpt lat="43.67046" lon="3.70099">
        <ele>161</ele>
        <time>2022-08-03T07:36:04+02:00</time>
      </trkpt>
      <trkpt lat="43.67028" lon="3.70111">
        <ele>162</ele>
        <time>2022-08-03T07:36:18+02:00</time>
      </trkpt>
      <trkpt lat="43.67011" lon="3.70123">
        <ele>162</ele>
        <time>2022-08-03T07:36:34+02:00</time>
      </trkpt>
      <trkpt lat="43.66993" lon="3.70131">
        <ele>162</ele>
        <time>2022-08-03T07:36:50+02:00</time>
      </trkpt>
      <trkpt lat="43.66975" lon="3.70132">
        <ele>161</ele>
        <time>2022-08-03T07:37:04+02:00</time>
      </trkpt>
      <trkpt lat="43.66955" lon="3.70131">
        <ele>161</ele>
        <time>2022-08-03T07:37:19+02:00</time>
      </trkpt>
      <trkpt lat="43.66935" lon="3.70135">
        <ele>161</ele>
        <time>2022-08-03T07:37:35+02:00</time>
      </trkpt>
      <trkpt lat="43.66916" lon="3.70142">
        <ele>161</ele>
        <time>2022-08-03T07:37:51+02:00</time>
      </trkpt>
      <trkpt lat="43.66898" lon="3.70139">
        <ele>161</ele>
        <time>2022-08-03T07:38:08+02:00</time>
      </trkpt>
      <trkpt lat="43.6688" lon="3.70149">
        <ele>162</ele>
        <time>2022-08-03T07:38:53+02:00</time>
      </trkpt>
      <trkpt lat="43.66862" lon="3.70155">
        <ele>162</ele>
        <time>2022-08-03T07:39:08+02:00</time>
      </trkpt>
      <trkpt lat="43.66844" lon="3.70158">
        <ele>161</ele>
        <time>2022-08-03T07:39:23+02:00</time>
      </trkpt>
      <trkpt lat="43.66824" lon="3.70158">
        <ele>160</ele>
        <time>2022-08-03T07:39:38+02:00</time>
      </trkpt>
      <trkpt lat="43.66805" lon="3.70156">
        <ele>159</ele>
        <time>2022-08-03T07:40:13+02:00</time>
      </trkpt>
      <trkpt lat="43.66786" lon="3.70157">
        <ele>158</ele>
        <time>2022-08-03T07:40:30+02:00</time>
      </trkpt>
      <trkpt lat="43.66767" lon="3.7016">
        <ele>157</ele>
        <time>2022-08-03T07:40:47+02:00</time>
      </trkpt>
      <trkpt lat="43.66747" lon="3.70167">
        <ele>157</ele>
        <time>2022-08-03T07:41:01+02:00</time>
      </trkpt>
      <trkpt lat="43.66728" lon="3.70172">
        <ele>157</ele>
        <time>2022-08-03T07:41:16+02:00</time>
      </trkpt>
      <trkpt lat="43.66711" lon="3.70178">
        <ele>156</ele>
        <time>2022-08-03T07:41:30+02:00</time>
      </trkpt>
      <trkpt lat="43.66692" lon="3.70182">
        <ele>155</ele>
        <time>2022-08-03T07:41:44+02:00</time>
      </trkpt>
      <trkpt lat="43.66673" lon="3.70183">
        <ele>154</ele>
        <time>2022-08-03T07:41:58+02:00</time>
      </trkpt>
      <trkpt lat="43.66654" lon="3.70186">
        <ele>154</ele>
        <time>2022-08-03T07:42:13+02:00</time>
      </trkpt>
      <trkpt lat="43.66635" lon="3.70195">
        <ele>154</ele>
        <time>2022-08-03T07:42:28+02:00</time>
      </trkpt>
      <trkpt lat="43.66616" lon="3.702">
        <ele>154</ele>
        <time>2022-08-03T07:42:42+02:00</time>
      </trkpt>
      <trkpt lat="43.66597" lon="3.70204">
        <ele>155</ele>
        <time>2022-08-03T07:42:56+02:00</time>
      </trkpt>
      <trkpt lat="43.66578" lon="3.70207">
        <ele>155</ele>
        <time>2022-08-03T07:43:11+02:00</time>
      </trkpt>
      <trkpt lat="43.66558" lon="3.7021">
        <ele>155</ele>
        <time>2022-08-03T07:43:25+02:00</time>
      </trkpt>
      <trkpt lat="43.66539" lon="3.7021">
        <ele>154</ele>
        <time>2022-08-03T07:43:39+02:00</time>
      </trkpt>
      <trkpt lat="43.66519" lon="3.70207">
        <ele>153</ele>
        <time>2022-08-03T07:43:55+02:00</time>
      </trkpt>
      <trkpt lat="43.66499" lon="3.70202">
        <ele>150</ele>
        <time>2022-08-03T07:44:11+02:00</time>
      </trkpt>
      <trkpt lat="43.66481" lon="3.70192">
        <ele>149</ele>
        <time>2022-08-03T07:44:26+02:00</time>
      </trkpt>
      <trkpt lat="43.66462" lon="3.70182">
        <ele>148</ele>
        <time>2022-08-03T07:44:41+02:00</time>
      </trkpt>
      <trkpt lat="43.66446" lon="3.70168">
        <ele>147</ele>
        <time>2022-08-03T07:44:56+02:00</time>
      </trkpt>
      <trkpt lat="43.6643" lon="3.70155">
        <ele>147</ele>
        <time>2022-08-03T07:45:11+02:00</time>
      </trkpt>
      <trkpt lat="43.66411" lon="3.70144">
        <ele>146</ele>
        <time>2022-08-03T07:45:27+02:00</time>
      </trkpt>
      <trkpt lat="43.66395" lon="3.70132">
        <ele>145</ele>
        <time>2022-08-03T07:45:42+02:00</time>
      </trkpt>
      <trkpt lat="43.66377" lon="3.70121">
        <ele>144</ele>
        <time>2022-08-03T07:45:57+02:00</time>
      </trkpt>
      <trkpt lat="43.6636" lon="3.70112">
        <ele>144</ele>
        <time>2022-08-03T07:46:11+02:00</time>
      </trkpt>
      <trkpt lat="43.66344" lon="3.70101">
        <ele>144</ele>
        <time>2022-08-03T07:46:25+02:00</time>
      </trkpt>
      <trkpt lat="43.66326" lon="3.70094">
        <ele>143</ele>
        <time>2022-08-03T07:46:39+02:00</time>
      </trkpt>
      <trkpt lat="43.66308" lon="3.70098">
        <ele>144</ele>
        <time>2022-08-03T07:46:53+02:00</time>
      </trkpt>
      <trkpt lat="43.6629" lon="3.70106">
        <ele>145</ele>
        <time>2022-08-03T07:47:12+02:00</time>
      </trkpt>
      <trkpt lat="43.66299" lon="3.70127">
        <ele>147</ele>
        <time>2022-08-03T07:48:26+02:00</time>
      </trkpt>
      <trkpt lat="43.66304" lon="3.70151">
        <ele>150</ele>
        <time>2022-08-03T07:48:47+02:00</time>
      </trkpt>
      <trkpt lat="43.66308" lon="3.70176">
        <ele>153</ele>
        <time>2022-08-03T07:49:11+02:00</time>
      </trkpt>
      <trkpt lat="43.66318" lon="3.70198">
        <ele>155</ele>
        <time>2022-08-03T07:49:33+02:00</time>
      </trkpt>
      <trkpt lat="43.66329" lon="3.7022">
        <ele>157</ele>
        <time>2022-08-03T07:49:59+02:00</time>
      </trkpt>
      <trkpt lat="43.66334" lon="3.70245">
        <ele>160</ele>
        <time>2022-08-03T07:50:24+02:00</time>
      </trkpt>
      <trkpt lat="43.66341" lon="3.7027">
        <ele>164</ele>
        <time>2022-08-03T07:50:49+02:00</time>
      </trkpt>
      <trkpt lat="43.66348" lon="3.70293">
        <ele>167</ele>
        <time>2022-08-03T07:51:14+02:00</time>
      </trkpt>
      <trkpt lat="43.66362" lon="3.70311">
        <ele>169</ele>
        <time>2022-08-03T07:51:39+02:00</time>
      </trkpt>
      <trkpt lat="43.66364" lon="3.70335">
        <ele>172</ele>
        <time>2022-08-03T07:52:09+02:00</time>
      </trkpt>
      <trkpt lat="43.66368" lon="3.7036">
        <ele>177</ele>
        <time>2022-08-03T07:52:42+02:00</time>
      </trkpt>
      <trkpt lat="43.66375" lon="3.70384">
        <ele>181</ele>
        <time>2022-08-03T07:53:12+02:00</time>
      </trkpt>
      <trkpt lat="43.66387" lon="3.70401">
        <ele>183</ele>
        <time>2022-08-03T07:53:37+02:00</time>
      </trkpt>
      <trkpt lat="43.66406" lon="3.70409">
        <ele>184</ele>
        <time>2022-08-03T07:55:01+02:00</time>
      </trkpt>
      <trkpt lat="43.66419" lon="3.70427">
        <ele>186</ele>
        <time>2022-08-03T07:55:24+02:00</time>
      </trkpt>
      <trkpt lat="43.66434" lon="3.70442">
        <ele>187</ele>
        <time>2022-08-03T07:55:46+02:00</time>
      </trkpt>
      <trkpt lat="43.66449" lon="3.70458">
        <ele>187</ele>
        <time>2022-08-03T07:56:07+02:00</time>
      </trkpt>
      <trkpt lat="43.66459" lon="3.70479">
        <ele>188</ele>
        <time>2022-08-03T07:56:32+02:00</time>
      </trkpt>
      <trkpt lat="43.66459" lon="3.70507">
        <ele>192</ele>
        <time>2022-08-03T07:57:02+02:00</time>
      </trkpt>
      <trkpt lat="43.66471" lon="3.70527">
        <ele>194</ele>
        <time>2022-08-03T07:57:29+02:00</time>
      </trkpt>
      <trkpt lat="43.66484" lon="3.70546">
        <ele>196</ele>
        <time>2022-08-03T07:57:58+02:00</time>
      </trkpt>
      <trkpt lat="43.66495" lon="3.70566">
        <ele>198</ele>
        <time>2022-08-03T07:58:20+02:00</time>
      </trkpt>
      <trkpt lat="43.66512" lon="3.70575">
        <ele>201</ele>
        <time>2022-08-03T07:58:43+02:00</time>
      </trkpt>
      <trkpt lat="43.66529" lon="3.70583">
        <ele>203</ele>
        <time>2022-08-03T08:00:54+02:00</time>
      </trkpt>
      <trkpt lat="43.66548" lon="3.70591">
        <ele>204</ele>
        <time>2022-08-03T08:01:20+02:00</time>
      </trkpt>
      <trkpt lat="43.66566" lon="3.70594">
        <ele>204</ele>
        <time>2022-08-03T08:01:38+02:00</time>
      </trkpt>
      <trkpt lat="43.66584" lon="3.70599">
        <ele>203</ele>
        <time>2022-08-03T08:01:57+02:00</time>
      </trkpt>
      <trkpt lat="43.66601" lon="3.70603">
        <ele>203</ele>
        <time>2022-08-03T08:02:16+02:00</time>
      </trkpt>
      <trkpt lat="43.66622" lon="3.70611">
        <ele>205</ele>
        <time>2022-08-03T08:02:45+02:00</time>
      </trkpt>
      <trkpt lat="43.66641" lon="3.70615">
        <ele>206</ele>
        <time>2022-08-03T08:03:16+02:00</time>
      </trkpt>
      <trkpt lat="43.66657" lon="3.70625">
        <ele>207</ele>
        <time>2022-08-03T08:03:46+02:00</time>
      </trkpt>
      <trkpt lat="43.66667" lon="3.70649">
        <ele>209</ele>
        <time>2022-08-03T08:04:15+02:00</time>
      </trkpt>
      <trkpt lat="43.6668" lon="3.70669">
        <ele>212</ele>
        <time>2022-08-03T08:04:52+02:00</time>
      </trkpt>
      <trkpt lat="43.66701" lon="3.70667">
        <ele>216</ele>
        <time>2022-08-03T08:05:42+02:00</time>
      </trkpt>
      <trkpt lat="43.66714" lon="3.70655">
        <ele>218</ele>
        <time>2022-08-03T08:06:06+02:00</time>
      </trkpt>
      <trkpt lat="43.66734" lon="3.70645">
        <ele>220</ele>
        <time>2022-08-03T08:06:40+02:00</time>
      </trkpt>
      <trkpt lat="43.66753" lon="3.70636">
        <ele>222</ele>
        <time>2022-08-03T08:07:23+02:00</time>
      </trkpt>
      <trkpt lat="43.66772" lon="3.70631">
        <ele>223</ele>
        <time>2022-08-03T08:07:57+02:00</time>
      </trkpt>
      <trkpt lat="43.6679" lon="3.70626">
        <ele>224</ele>
        <time>2022-08-03T08:08:42+02:00</time>
      </trkpt>
      <trkpt lat="43.66787" lon="3.70654">
        <ele>229</ele>
        <time>2022-08-03T08:09:56+02:00</time>
      </trkpt>
      <trkpt lat="43.66777" lon="3.70679">
        <ele>232</ele>
        <time>2022-08-03T08:10:29+02:00</time>
      </trkpt>
      <trkpt lat="43.66778" lon="3.70702">
        <ele>237</ele>
        <time>2022-08-03T08:11:07+02:00</time>
      </trkpt>
      <trkpt lat="43.66793" lon="3.70721">
        <ele>242</ele>
        <time>2022-08-03T08:11:49+02:00</time>
      </trkpt>
      <trkpt lat="43.66812" lon="3.70728">
        <ele>245</ele>
        <time>2022-08-03T08:13:05+02:00</time>
      </trkpt>
      <trkpt lat="43.66831" lon="3.70734">
        <ele>246</ele>
        <time>2022-08-03T08:14:49+02:00</time>
      </trkpt>
      <trkpt lat="43.66851" lon="3.70748">
        <ele>249</ele>
        <time>2022-08-03T08:16:31+02:00</time>
      </trkpt>
      <trkpt lat="43.66869" lon="3.70756">
        <ele>252</ele>
        <time>2022-08-03T08:18:46+02:00</time>
      </trkpt>
      <trkpt lat="43.66888" lon="3.70761">
        <ele>254</ele>
        <time>2022-08-03T08:21:12+02:00</time>
      </trkpt>
      <trkpt lat="43.66909" lon="3.70768">
        <ele>257</ele>
      </trkpt>
      <trkpt lat="43.66919" lon="3.70783">
        <ele>260</ele>
      </trkpt>
      <trkpt lat="43.66931" lon="3.70795">
        <ele>263</ele>
      </trkpt>
      <trkpt lat="43.66942" lon="3.70816">
        <ele>265</ele>
        <time>2022-08-03T08:22:33+02:00</time>
      </trkpt>
      <trkpt lat="43.66947" lon="3.70842">
        <ele>265</ele>
        <time>2022-08-03T08:23:09+02:00</time>
      </trkpt>
      <trkpt lat="43.66969" lon="3.70844">
        <ele>267</ele>
        <time>2022-08-03T08:23:51+02:00</time>
      </trkpt>
      <trkpt lat="43.66987" lon="3.70846">
        <ele>270</ele>
      </trkpt>
      <trkpt lat="43.66978" lon="3.70866">
        <ele>269</ele>
        <time>2022-08-03T08:26:01+02:00</time>
      </trkpt>
      <trkpt lat="43.6696" lon="3.70881">
        <ele>265</ele>
        <time>2022-08-03T08:27:12+02:00</time>
      </trkpt>
      <trkpt lat="43.66977" lon="3.70875">
        <ele>269</ele>
        <time>2022-08-03T08:31:52+02:00</time>
      </trkpt>
      <trkpt lat="43.66984" lon="3.70868">
        <ele>270</ele>
        <time>2022-08-03T08:32:11+02:00</time>
      </trkpt>
      <trkpt lat="43.67003" lon="3.70856">
        <ele>272</ele>
        <time>2022-08-03T08:32:41+02:00</time>
      </trkpt>
      <trkpt lat="43.6702" lon="3.70865">
        <ele>274</ele>
        <time>2022-08-03T08:33:04+02:00</time>
      </trkpt>
      <trkpt lat="43.67038" lon="3.70864">
        <ele>275</ele>
        <time>2022-08-03T08:33:30+02:00</time>
      </trkpt>
      <trkpt lat="43.67056" lon="3.70867">
        <ele>276</ele>
        <time>2022-08-03T08:33:48+02:00</time>
      </trkpt>
      <trkpt lat="43.6707" lon="3.70884">
        <ele>278</ele>
        <time>2022-08-03T08:35:36+02:00</time>
      </trkpt>
      <trkpt lat="43.67087" lon="3.70893">
        <ele>279</ele>
        <time>2022-08-03T08:36:00+02:00</time>
      </trkpt>
      <trkpt lat="43.67103" lon="3.70905">
        <ele>280</ele>
        <time>2022-08-03T08:36:26+02:00</time>
      </trkpt>
      <trkpt lat="43.67123" lon="3.70903">
        <ele>280</ele>
        <time>2022-08-03T08:36:50+02:00</time>
      </trkpt>
      <trkpt lat="43.67142" lon="3.70907">
        <ele>281</ele>
        <time>2022-08-03T08:37:10+02:00</time>
      </trkpt>
      <trkpt lat="43.67161" lon="3.70909">
        <ele>281</ele>
        <time>2022-08-03T08:37:31+02:00</time>
      </trkpt>
      <trkpt lat="43.6718" lon="3.7091">
        <ele>282</ele>
        <time>2022-08-03T08:37:51+02:00</time>
      </trkpt>
      <trkpt lat="43.67198" lon="3.70907">
        <ele>282</ele>
        <time>2022-08-03T08:38:11+02:00</time>
      </trkpt>
      <trkpt lat="43.67218" lon="3.70906">
        <ele>282</ele>
        <time>2022-08-03T08:38:30+02:00</time>
      </trkpt>
      <trkpt lat="43.67236" lon="3.70902">
        <ele>283</ele>
        <time>2022-08-03T08:38:48+02:00</time>
      </trkpt>
      <trkpt lat="43.67256" lon="3.70897">
        <ele>284</ele>
        <time>2022-08-03T08:39:08+02:00</time>
      </trkpt>
      <trkpt lat="43.67275" lon="3.70893">
        <ele>284</ele>
        <time>2022-08-03T08:39:26+02:00</time>
      </trkpt>
      <trkpt lat="43.67294" lon="3.70888">
        <ele>285</ele>
        <time>2022-08-03T08:39:45+02:00</time>
      </trkpt>
      <trkpt lat="43.67312" lon="3.70884">
        <ele>285</ele>
        <time>2022-08-03T08:40:03+02:00</time>
      </trkpt>
      <trkpt lat="43.67329" lon="3.70873">
        <ele>285</ele>
        <time>2022-08-03T08:40:24+02:00</time>
      </trkpt>
      <trkpt lat="43.67346" lon="3.7086">
        <ele>285</ele>
        <time>2022-08-03T08:40:46+02:00</time>
      </trkpt>
      <trkpt lat="43.67364" lon="3.70852">
        <ele>286</ele>
        <time>2022-08-03T08:41:07+02:00</time>
      </trkpt>
      <trkpt lat="43.67382" lon="3.70853">
        <ele>287</ele>
        <time>2022-08-03T08:41:28+02:00</time>
      </trkpt>
      <trkpt lat="43.67392" lon="3.70856">
        <ele>288</ele>
        <time>2022-08-03T08:41:39+02:00</time>
      </trkpt>
      <trkpt lat="43.6741" lon="3.70864">
        <ele>289</ele>
        <time>2022-08-03T08:42:30+02:00</time>
      </trkpt>
      <trkpt lat="43.67428" lon="3.70859">
        <ele>290</ele>
        <time>2022-08-03T08:42:55+02:00</time>
      </trkpt>
      <trkpt lat="43.67447" lon="3.70857">
        <ele>291</ele>
        <time>2022-08-03T08:43:18+02:00</time>
      </trkpt>
      <trkpt lat="43.67466" lon="3.70857">
        <ele>292</ele>
        <time>2022-08-03T08:43:36+02:00</time>
      </trkpt>
      <trkpt lat="43.67484" lon="3.70852">
        <ele>292</ele>
        <time>2022-08-03T08:43:54+02:00</time>
      </trkpt>
      <trkpt lat="43.67502" lon="3.70855">
        <ele>293</ele>
        <time>2022-08-03T08:44:12+02:00</time>
      </trkpt>
      <trkpt lat="43.67522" lon="3.70853">
        <ele>292</ele>
        <time>2022-08-03T08:44:31+02:00</time>
      </trkpt>
      <trkpt lat="43.6754" lon="3.70847">
        <ele>291</ele>
        <time>2022-08-03T08:44:50+02:00</time>
      </trkpt>
      <trkpt lat="43.67559" lon="3.70847">
        <ele>290</ele>
        <time>2022-08-03T08:45:09+02:00</time>
      </trkpt>
      <trkpt lat="43.67578" lon="3.70847">
        <ele>291</ele>
        <time>2022-08-03T08:45:28+02:00</time>
      </trkpt>
      <trkpt lat="43.67596" lon="3.70845">
        <ele>290</ele>
        <time>2022-08-03T08:45:45+02:00</time>
      </trkpt>
      <trkpt lat="43.67615" lon="3.7085">
        <ele>289</ele>
        <time>2022-08-03T08:46:50+02:00</time>
      </trkpt>
      <trkpt lat="43.67633" lon="3.70853">
        <ele>288</ele>
        <time>2022-08-03T08:47:08+02:00</time>
      </trkpt>
      <trkpt lat="43.67652" lon="3.7086">
        <ele>288</ele>
        <time>2022-08-03T08:47:24+02:00</time>
      </trkpt>
      <trkpt lat="43.67668" lon="3.70876">
        <ele>288</ele>
        <time>2022-08-03T08:47:42+02:00</time>
      </trkpt>
      <trkpt lat="43.67687" lon="3.70884">
        <ele>289</ele>
        <time>2022-08-03T08:47:58+02:00</time>
      </trkpt>
      <trkpt lat="43.67707" lon="3.7088">
        <ele>289</ele>
        <time>2022-08-03T08:48:15+02:00</time>
      </trkpt>
      <trkpt lat="43.67725" lon="3.70874">
        <ele>290</ele>
        <time>2022-08-03T08:48:31+02:00</time>
      </trkpt>
      <trkpt lat="43.67744" lon="3.70867">
        <ele>290</ele>
        <time>2022-08-03T08:48:47+02:00</time>
      </trkpt>
      <trkpt lat="43.67762" lon="3.70855">
        <ele>289</ele>
        <time>2022-08-03T08:49:02+02:00</time>
      </trkpt>
      <trkpt lat="43.67777" lon="3.70841">
        <ele>288</ele>
        <time>2022-08-03T08:49:18+02:00</time>
      </trkpt>
      <trkpt lat="43.67794" lon="3.70832">
        <ele>288</ele>
        <time>2022-08-03T08:49:31+02:00</time>
      </trkpt>
      <trkpt lat="43.67811" lon="3.70822">
        <ele>287</ele>
        <time>2022-08-03T08:49:47+02:00</time>
      </trkpt>
      <trkpt lat="43.67827" lon="3.70808">
        <ele>286</ele>
        <time>2022-08-03T08:50:03+02:00</time>
      </trkpt>
      <trkpt lat="43.67842" lon="3.70791">
        <ele>286</ele>
        <time>2022-08-03T08:50:19+02:00</time>
      </trkpt>
      <trkpt lat="43.67861" lon="3.70786">
        <ele>285</ele>
        <time>2022-08-03T08:50:33+02:00</time>
      </trkpt>
      <trkpt lat="43.6788" lon="3.70786">
        <ele>285</ele>
        <time>2022-08-03T08:50:47+02:00</time>
      </trkpt>
      <trkpt lat="43.67898" lon="3.70793">
        <ele>285</ele>
        <time>2022-08-03T08:51:01+02:00</time>
      </trkpt>
      <trkpt lat="43.67911" lon="3.70812">
        <ele>285</ele>
        <time>2022-08-03T08:51:18+02:00</time>
      </trkpt>
      <trkpt lat="43.67921" lon="3.70834">
        <ele>285</ele>
        <time>2022-08-03T08:51:34+02:00</time>
      </trkpt>
      <trkpt lat="43.67934" lon="3.70855">
        <ele>284</ele>
        <time>2022-08-03T08:51:50+02:00</time>
      </trkpt>
      <trkpt lat="43.67949" lon="3.70871">
        <ele>283</ele>
        <time>2022-08-03T08:52:04+02:00</time>
      </trkpt>
      <trkpt lat="43.67962" lon="3.70891">
        <ele>281</ele>
        <time>2022-08-03T08:52:19+02:00</time>
      </trkpt>
      <trkpt lat="43.67976" lon="3.70907">
        <ele>280</ele>
        <time>2022-08-03T08:52:35+02:00</time>
      </trkpt>
      <trkpt lat="43.67995" lon="3.7091">
        <ele>280</ele>
        <time>2022-08-03T08:52:52+02:00</time>
      </trkpt>
      <trkpt lat="43.68013" lon="3.70915">
        <ele>281</ele>
        <time>2022-08-03T08:53:08+02:00</time>
      </trkpt>
      <trkpt lat="43.68033" lon="3.70917">
        <ele>281</ele>
        <time>2022-08-03T08:53:26+02:00</time>
      </trkpt>
      <trkpt lat="43.68051" lon="3.70911">
        <ele>282</ele>
        <time>2022-08-03T08:53:43+02:00</time>
      </trkpt>
      <trkpt lat="43.68069" lon="3.70903">
        <ele>282</ele>
        <time>2022-08-03T08:54:02+02:00</time>
      </trkpt>
      <trkpt lat="43.68088" lon="3.70901">
        <ele>282</ele>
        <time>2022-08-03T08:54:19+02:00</time>
      </trkpt>
      <trkpt lat="43.68108" lon="3.70902">
        <ele>282</ele>
        <time>2022-08-03T08:54:35+02:00</time>
      </trkpt>
      <trkpt lat="43.68126" lon="3.70898">
        <ele>282</ele>
        <time>2022-08-03T08:54:49+02:00</time>
      </trkpt>
      <trkpt lat="43.68146" lon="3.70899">
        <ele>282</ele>
        <time>2022-08-03T08:55:05+02:00</time>
      </trkpt>
      <trkpt lat="43.68165" lon="3.70896">
        <ele>282</ele>
        <time>2022-08-03T08:55:22+02:00</time>
      </trkpt>
      <trkpt lat="43.68175" lon="3.70896">
        <ele>282</ele>
        <time>2022-08-03T08:55:30+02:00</time>
      </trkpt>
      <trkpt lat="43.68193" lon="3.70904">
        <ele>282</ele>
        <time>2022-08-03T08:56:17+02:00</time>
      </trkpt>
      <trkpt lat="43.6821" lon="3.70915">
        <ele>281</ele>
        <time>2022-08-03T08:56:33+02:00</time>
      </trkpt>
      <trkpt lat="43.68226" lon="3.70928">
        <ele>281</ele>
        <time>2022-08-03T08:56:50+02:00</time>
      </trkpt>
      <trkpt lat="43.68243" lon="3.70939">
        <ele>281</ele>
        <time>2022-08-03T08:57:06+02:00</time>
      </trkpt>
      <trkpt lat="43.68261" lon="3.7095">
        <ele>281</ele>
        <time>2022-08-03T08:57:22+02:00</time>
      </trkpt>
      <trkpt lat="43.68279" lon="3.7096">
        <ele>281</ele>
        <time>2022-08-03T08:57:37+02:00</time>
      </trkpt>
      <trkpt lat="43.68294" lon="3.70975">
        <ele>280</ele>
        <time>2022-08-03T08:57:53+02:00</time>
      </trkpt>
      <trkpt lat="43.68308" lon="3.70994">
        <ele>280</ele>
        <time>2022-08-03T08:58:11+02:00</time>
      </trkpt>
      <trkpt lat="43.68316" lon="3.71001">
        <ele>280</ele>
        <time>2022-08-03T08:58:18+02:00</time>
      </trkpt>
      <trkpt lat="43.68327" lon="3.71021">
        <ele>280</ele>
        <time>2022-08-03T08:58:34+02:00</time>
      </trkpt>
      <trkpt lat="43.68321" lon="3.71047">
        <ele>280</ele>
        <time>2022-08-03T08:58:52+02:00</time>
      </trkpt>
      <trkpt lat="43.68313" lon="3.71071">
        <ele>279</ele>
        <time>2022-08-03T08:59:08+02:00</time>
      </trkpt>
      <trkpt lat="43.68303" lon="3.71095">
        <ele>279</ele>
        <time>2022-08-03T08:59:24+02:00</time>
      </trkpt>
      <trkpt lat="43.68295" lon="3.7112">
        <ele>278</ele>
        <time>2022-08-03T08:59:40+02:00</time>
      </trkpt>
      <trkpt lat="43.68288" lon="3.71144">
        <ele>277</ele>
        <time>2022-08-03T08:59:55+02:00</time>
      </trkpt>
      <trkpt lat="43.68284" lon="3.71156">
        <ele>277</ele>
        <time>2022-08-03T09:00:03+02:00</time>
      </trkpt>
      <trkpt lat="43.68288" lon="3.71179">
        <ele>276</ele>
        <time>2022-08-03T09:01:19+02:00</time>
      </trkpt>
      <trkpt lat="43.68297" lon="3.71202">
        <ele>276</ele>
        <time>2022-08-03T09:01:35+02:00</time>
      </trkpt>
      <trkpt lat="43.68304" lon="3.71227">
        <ele>276</ele>
        <time>2022-08-03T09:01:51+02:00</time>
      </trkpt>
      <trkpt lat="43.6831" lon="3.71251">
        <ele>276</ele>
        <time>2022-08-03T09:02:07+02:00</time>
      </trkpt>
      <trkpt lat="43.68317" lon="3.71275">
        <ele>275</ele>
        <time>2022-08-03T09:02:22+02:00</time>
      </trkpt>
      <trkpt lat="43.68326" lon="3.71298">
        <ele>275</ele>
        <time>2022-08-03T09:02:37+02:00</time>
      </trkpt>
      <trkpt lat="43.68342" lon="3.71314">
        <ele>275</ele>
        <time>2022-08-03T09:02:52+02:00</time>
      </trkpt>
      <trkpt lat="43.6835" lon="3.71338">
        <ele>275</ele>
        <time>2022-08-03T09:03:08+02:00</time>
      </trkpt>
      <trkpt lat="43.68353" lon="3.71364">
        <ele>275</ele>
        <time>2022-08-03T09:03:23+02:00</time>
      </trkpt>
      <trkpt lat="43.6836" lon="3.71388">
        <ele>276</ele>
        <time>2022-08-03T09:03:39+02:00</time>
      </trkpt>
      <trkpt lat="43.6837" lon="3.71409">
        <ele>277</ele>
        <time>2022-08-03T09:03:55+02:00</time>
      </trkpt>
      <trkpt lat="43.68373" lon="3.71435">
        <ele>277</ele>
        <time>2022-08-03T09:04:11+02:00</time>
      </trkpt>
      <trkpt lat="43.68375" lon="3.71462">
        <ele>277</ele>
        <time>2022-08-03T09:04:28+02:00</time>
      </trkpt>
      <trkpt lat="43.68377" lon="3.71489">
        <ele>278</ele>
        <time>2022-08-03T09:04:45+02:00</time>
      </trkpt>
      <trkpt lat="43.68368" lon="3.71513">
        <ele>279</ele>
        <time>2022-08-03T09:05:01+02:00</time>
      </trkpt>
      <trkpt lat="43.68372" lon="3.71538">
        <ele>281</ele>
        <time>2022-08-03T09:05:18+02:00</time>
      </trkpt>
      <trkpt lat="43.68377" lon="3.71564">
        <ele>283</ele>
        <time>2022-08-03T09:05:36+02:00</time>
      </trkpt>
      <trkpt lat="43.68383" lon="3.71588">
        <ele>284</ele>
        <time>2022-08-03T09:05:54+02:00</time>
      </trkpt>
      <trkpt lat="43.68383" lon="3.71614">
        <ele>285</ele>
        <time>2022-08-03T09:06:14+02:00</time>
      </trkpt>
      <trkpt lat="43.68379" lon="3.7164">
        <ele>285</ele>
        <time>2022-08-03T09:06:34+02:00</time>
      </trkpt>
      <trkpt lat="43.68371" lon="3.71663">
        <ele>285</ele>
        <time>2022-08-03T09:06:53+02:00</time>
      </trkpt>
      <trkpt lat="43.68369" lon="3.71689">
        <ele>285</ele>
        <time>2022-08-03T09:07:11+02:00</time>
      </trkpt>
      <trkpt lat="43.68367" lon="3.71715">
        <ele>285</ele>
        <time>2022-08-03T09:07:27+02:00</time>
      </trkpt>
      <trkpt lat="43.68366" lon="3.71742">
        <ele>285</ele>
        <time>2022-08-03T09:07:46+02:00</time>
      </trkpt>
      <trkpt lat="43.68375" lon="3.71762">
        <ele>285</ele>
        <time>2022-08-03T09:08:04+02:00</time>
      </trkpt>
      <trkpt lat="43.68368" lon="3.71785">
        <ele>284</ele>
        <time>2022-08-03T09:08:29+02:00</time>
      </trkpt>
      <trkpt lat="43.68359" lon="3.71812">
        <ele>281</ele>
        <time>2022-08-03T09:09:05+02:00</time>
      </trkpt>
      <trkpt lat="43.68365" lon="3.71835">
        <ele>277</ele>
        <time>2022-08-03T09:09:53+02:00</time>
      </trkpt>
      <trkpt lat="43.68373" lon="3.71857">
        <ele>271</ele>
        <time>2022-08-03T09:12:36+02:00</time>
      </trkpt>
      <trkpt lat="43.68369" lon="3.71836">
        <ele>277</ele>
        <time>2022-08-03T09:14:33+02:00</time>
      </trkpt>
      <trkpt lat="43.68352" lon="3.71826">
        <ele>279</ele>
        <time>2022-08-03T09:15:20+02:00</time>
      </trkpt>
      <trkpt lat="43.68354" lon="3.71803">
        <ele>282</ele>
        <time>2022-08-03T09:16:01+02:00</time>
      </trkpt>
      <trkpt lat="43.68363" lon="3.71783">
        <ele>284</ele>
        <time>2022-08-03T09:16:25+02:00</time>
      </trkpt>
      <trkpt lat="43.68371" lon="3.7176">
        <ele>285</ele>
        <time>2022-08-03T09:16:55+02:00</time>
      </trkpt>
      <trkpt lat="43.68365" lon="3.71737">
        <ele>285</ele>
        <time>2022-08-03T09:17:21+02:00</time>
      </trkpt>
      <trkpt lat="43.68367" lon="3.71711">
        <ele>285</ele>
        <time>2022-08-03T09:17:45+02:00</time>
      </trkpt>
      <trkpt lat="43.68367" lon="3.71685">
        <ele>285</ele>
        <time>2022-08-03T09:18:06+02:00</time>
      </trkpt>
      <trkpt lat="43.68374" lon="3.7166">
        <ele>285</ele>
        <time>2022-08-03T09:18:24+02:00</time>
      </trkpt>
      <trkpt lat="43.68383" lon="3.71637">
        <ele>285</ele>
        <time>2022-08-03T09:18:40+02:00</time>
      </trkpt>
      <trkpt lat="43.68386" lon="3.7161">
        <ele>285</ele>
        <time>2022-08-03T09:18:57+02:00</time>
      </trkpt>
      <trkpt lat="43.68382" lon="3.71585">
        <ele>284</ele>
        <time>2022-08-03T09:19:14+02:00</time>
      </trkpt>
      <trkpt lat="43.68376" lon="3.71559">
        <ele>283</ele>
        <time>2022-08-03T09:19:33+02:00</time>
      </trkpt>
      <trkpt lat="43.68373" lon="3.71534">
        <ele>281</ele>
        <time>2022-08-03T09:19:51+02:00</time>
      </trkpt>
      <trkpt lat="43.68373" lon="3.71511">
        <ele>279</ele>
        <time>2022-08-03T09:20:08+02:00</time>
      </trkpt>
      <trkpt lat="43.68374" lon="3.71485">
        <ele>278</ele>
        <time>2022-08-03T09:20:26+02:00</time>
      </trkpt>
      <trkpt lat="43.68377" lon="3.71458">
        <ele>278</ele>
        <time>2022-08-03T09:20:42+02:00</time>
      </trkpt>
      <trkpt lat="43.68373" lon="3.7143">
        <ele>277</ele>
        <time>2022-08-03T09:20:58+02:00</time>
      </trkpt>
      <trkpt lat="43.68367" lon="3.71406">
        <ele>276</ele>
        <time>2022-08-03T09:21:14+02:00</time>
      </trkpt>
      <trkpt lat="43.68359" lon="3.71381">
        <ele>276</ele>
        <time>2022-08-03T09:21:30+02:00</time>
      </trkpt>
      <trkpt lat="43.68354" lon="3.71355">
        <ele>275</ele>
        <time>2022-08-03T09:21:46+02:00</time>
      </trkpt>
      <trkpt lat="43.68349" lon="3.71329">
        <ele>275</ele>
        <time>2022-08-03T09:22:02+02:00</time>
      </trkpt>
      <trkpt lat="43.68333" lon="3.71325">
        <ele>274</ele>
        <time>2022-08-03T09:22:41+02:00</time>
      </trkpt>
      <trkpt lat="43.6832" lon="3.71307">
        <ele>274</ele>
        <time>2022-08-03T09:22:58+02:00</time>
      </trkpt>
      <trkpt lat="43.68314" lon="3.71282">
        <ele>275</ele>
        <time>2022-08-03T09:23:14+02:00</time>
      </trkpt>
      <trkpt lat="43.68307" lon="3.71257">
        <ele>276</ele>
        <time>2022-08-03T09:23:33+02:00</time>
      </trkpt>
      <trkpt lat="43.68302" lon="3.71231">
        <ele>276</ele>
        <time>2022-08-03T09:23:50+02:00</time>
      </trkpt>
      <trkpt lat="43.68297" lon="3.71206">
        <ele>276</ele>
        <time>2022-08-03T09:24:06+02:00</time>
      </trkpt>
      <trkpt lat="43.68289" lon="3.71181">
        <ele>276</ele>
        <time>2022-08-03T09:24:23+02:00</time>
      </trkpt>
      <trkpt lat="43.68287" lon="3.71157">
        <ele>277</ele>
        <time>2022-08-03T09:24:40+02:00</time>
      </trkpt>
      <trkpt lat="43.68294" lon="3.71134">
        <ele>278</ele>
        <time>2022-08-03T09:24:58+02:00</time>
      </trkpt>
      <trkpt lat="43.68303" lon="3.7111">
        <ele>278</ele>
        <time>2022-08-03T09:25:16+02:00</time>
      </trkpt>
      <trkpt lat="43.6831" lon="3.71087">
        <ele>279</ele>
        <time>2022-08-03T09:25:31+02:00</time>
      </trkpt>
      <trkpt lat="43.68318" lon="3.71062">
        <ele>279</ele>
        <time>2022-08-03T09:25:46+02:00</time>
      </trkpt>
      <trkpt lat="43.68327" lon="3.71039">
        <ele>280</ele>
        <time>2022-08-03T09:26:02+02:00</time>
      </trkpt>
      <trkpt lat="43.68329" lon="3.71014">
        <ele>280</ele>
        <time>2022-08-03T09:26:18+02:00</time>
      </trkpt>
      <trkpt lat="43.68315" lon="3.70996">
        <ele>280</ele>
        <time>2022-08-03T09:26:34+02:00</time>
      </trkpt>
      <trkpt lat="43.68299" lon="3.70979">
        <ele>280</ele>
        <time>2022-08-03T09:26:52+02:00</time>
      </trkpt>
      <trkpt lat="43.68284" lon="3.70963">
        <ele>281</ele>
        <time>2022-08-03T09:27:09+02:00</time>
      </trkpt>
      <trkpt lat="43.68267" lon="3.70951">
        <ele>281</ele>
        <time>2022-08-03T09:27:26+02:00</time>
      </trkpt>
      <trkpt lat="43.68249" lon="3.70942">
        <ele>281</ele>
        <time>2022-08-03T09:27:43+02:00</time>
      </trkpt>
      <trkpt lat="43.68232" lon="3.70929">
        <ele>281</ele>
        <time>2022-08-03T09:27:58+02:00</time>
      </trkpt>
      <trkpt lat="43.68215" lon="3.70916">
        <ele>281</ele>
        <time>2022-08-03T09:28:14+02:00</time>
      </trkpt>
      <trkpt lat="43.68197" lon="3.70907">
        <ele>282</ele>
        <time>2022-08-03T09:28:30+02:00</time>
      </trkpt>
      <trkpt lat="43.6818" lon="3.70895">
        <ele>282</ele>
        <time>2022-08-03T09:28:47+02:00</time>
      </trkpt>
      <trkpt lat="43.68173" lon="3.7087">
        <ele>282</ele>
        <time>2022-08-03T09:29:05+02:00</time>
      </trkpt>
      <trkpt lat="43.68168" lon="3.70844">
        <ele>282</ele>
        <time>2022-08-03T09:29:23+02:00</time>
      </trkpt>
      <trkpt lat="43.68161" lon="3.7082">
        <ele>282</ele>
        <time>2022-08-03T09:29:40+02:00</time>
      </trkpt>
      <trkpt lat="43.68155" lon="3.70795">
        <ele>282</ele>
        <time>2022-08-03T09:29:59+02:00</time>
      </trkpt>
      <trkpt lat="43.68144" lon="3.70774">
        <ele>282</ele>
        <time>2022-08-03T09:30:17+02:00</time>
      </trkpt>
      <trkpt lat="43.68134" lon="3.70751">
        <ele>282</ele>
        <time>2022-08-03T09:30:37+02:00</time>
      </trkpt>
      <trkpt lat="43.68127" lon="3.70728">
        <ele>281</ele>
        <time>2022-08-03T09:30:55+02:00</time>
      </trkpt>
      <trkpt lat="43.6812" lon="3.70703">
        <ele>281</ele>
        <time>2022-08-03T09:34:13+02:00</time>
      </trkpt>
      <trkpt lat="43.6813" lon="3.70682">
        <ele>281</ele>
        <time>2022-08-03T09:34:31+02:00</time>
      </trkpt>
      <trkpt lat="43.6813" lon="3.70657">
        <ele>280</ele>
        <time>2022-08-03T09:34:53+02:00</time>
      </trkpt>
      <trkpt lat="43.68123" lon="3.70633">
        <ele>280</ele>
        <time>2022-08-03T09:35:14+02:00</time>
      </trkpt>
      <trkpt lat="43.68115" lon="3.7061">
        <ele>280</ele>
        <time>2022-08-03T09:35:35+02:00</time>
      </trkpt>
      <trkpt lat="43.68116" lon="3.70584">
        <ele>278</ele>
        <time>2022-08-03T09:35:55+02:00</time>
      </trkpt>
      <trkpt lat="43.68106" lon="3.70562">
        <ele>275</ele>
        <time>2022-08-03T09:37:23+02:00</time>
      </trkpt>
      <trkpt lat="43.68121" lon="3.70544">
        <ele>271</ele>
        <time>2022-08-03T09:39:35+02:00</time>
      </trkpt>
      <trkpt lat="43.68127" lon="3.70521">
        <ele>264</ele>
        <time>2022-08-03T09:40:31+02:00</time>
      </trkpt>
      <trkpt lat="43.68123" lon="3.70498">
        <ele>260</ele>
        <time>2022-08-03T09:41:50+02:00</time>
      </trkpt>
      <trkpt lat="43.68118" lon="3.70473">
        <ele>254</ele>
        <time>2022-08-03T09:42:38+02:00</time>
      </trkpt>
      <trkpt lat="43.6811" lon="3.70451">
        <ele>249</ele>
        <time>2022-08-03T09:44:44+02:00</time>
      </trkpt>
      <trkpt lat="43.68114" lon="3.70422">
        <ele>240</ele>
        <time>2022-08-03T09:46:16+02:00</time>
      </trkpt>
      <trkpt lat="43.68106" lon="3.70399">
        <ele>234</ele>
        <time>2022-08-03T09:46:41+02:00</time>
      </trkpt>
      <trkpt lat="43.68105" lon="3.70377">
        <ele>230</ele>
        <time>2022-08-03T09:47:40+02:00</time>
      </trkpt>
      <trkpt lat="43.68098" lon="3.70352">
        <ele>225</ele>
        <time>2022-08-03T09:48:34+02:00</time>
      </trkpt>
      <trkpt lat="43.6809" lon="3.70328">
        <ele>220</ele>
        <time>2022-08-03T09:49:14+02:00</time>
      </trkpt>
      <trkpt lat="43.68082" lon="3.70306">
        <ele>216</ele>
        <time>2022-08-03T09:50:06+02:00</time>
      </trkpt>
      <trkpt lat="43.68083" lon="3.70286">
        <ele>213</ele>
        <time>2022-08-03T09:51:47+02:00</time>
      </trkpt>
      <trkpt lat="43.68086" lon="3.70261">
        <ele>209</ele>
        <time>2022-08-03T09:52:29+02:00</time>
      </trkpt>
      <trkpt lat="43.68093" lon="3.70238">
        <ele>207</ele>
        <time>2022-08-03T09:53:01+02:00</time>
      </trkpt>
      <trkpt lat="43.68085" lon="3.70215">
        <ele>203</ele>
        <time>2022-08-03T09:53:42+02:00</time>
      </trkpt>
      <trkpt lat="43.6807" lon="3.70199">
        <ele>199</ele>
        <time>2022-08-03T09:54:09+02:00</time>
      </trkpt>
      <trkpt lat="43.68066" lon="3.70175">
        <ele>195</ele>
        <time>2022-08-03T09:54:38+02:00</time>
      </trkpt>
      <trkpt lat="43.68072" lon="3.70151">
        <ele>193</ele>
        <time>2022-08-03T09:55:01+02:00</time>
      </trkpt>
      <trkpt lat="43.6807" lon="3.70125">
        <ele>190</ele>
        <time>2022-08-03T09:55:28+02:00</time>
      </trkpt>
      <trkpt lat="43.68065" lon="3.70102">
        <ele>187</ele>
        <time>2022-08-03T09:56:04+02:00</time>
      </trkpt>
      <trkpt lat="43.68058" lon="3.7008">
        <ele>185</ele>
        <time>2022-08-03T09:56:43+02:00</time>
      </trkpt>
      <trkpt lat="43.68062" lon="3.70057">
        <ele>182</ele>
        <time>2022-08-03T09:57:10+02:00</time>
      </trkpt>
      <trkpt lat="43.68063" lon="3.70031">
        <ele>180</ele>
        <time>2022-08-03T09:57:40+02:00</time>
      </trkpt>
      <trkpt lat="43.68058" lon="3.70004">
        <ele>177</ele>
        <time>2022-08-03T09:58:04+02:00</time>
      </trkpt>
      <trkpt lat="43.68054" lon="3.69978">
        <ele>175</ele>
        <time>2022-08-03T09:58:30+02:00</time>
      </trkpt>
      <trkpt lat="43.68048" lon="3.69953">
        <ele>173</ele>
        <time>2022-08-03T09:58:46+02:00</time>
      </trkpt>
      <trkpt lat="43.68044" lon="3.69927">
        <ele>171</ele>
        <time>2022-08-03T09:59:05+02:00</time>
      </trkpt>
      <trkpt lat="43.68043" lon="3.699">
        <ele>169</ele>
        <time>2022-08-03T09:59:24+02:00</time>
      </trkpt>
      <trkpt lat="43.68039" lon="3.69873">
        <ele>167</ele>
        <time>2022-08-03T09:59:44+02:00</time>
      </trkpt>
      <trkpt lat="43.68032" lon="3.69848">
        <ele>165</ele>
        <time>2022-08-03T10:00:04+02:00</time>
      </trkpt>
      <trkpt lat="43.68039" lon="3.69826">
        <ele>164</ele>
        <time>2022-08-03T10:00:24+02:00</time>
      </trkpt>
      <trkpt lat="43.68039" lon="3.69802">
        <ele>162</ele>
        <time>2022-08-03T10:00:50+02:00</time>
      </trkpt>
      <trkpt lat="43.68036" lon="3.69777">
        <ele>159</ele>
        <time>2022-08-03T10:01:11+02:00</time>
      </trkpt>
      <trkpt lat="43.6803" lon="3.69752">
        <ele>156</ele>
        <time>2022-08-03T10:01:37+02:00</time>
      </trkpt>
      <trkpt lat="43.68025" lon="3.69727">
        <ele>155</ele>
        <time>2022-08-03T10:02:04+02:00</time>
      </trkpt>
      <trkpt lat="43.6804" lon="3.69706">
        <ele>155</ele>
        <time>2022-08-03T10:04:00+02:00</time>
      </trkpt>
      <trkpt lat="43.68059" lon="3.69699">
        <ele>155</ele>
        <time>2022-08-03T10:04:18+02:00</time>
      </trkpt>
      <trkpt lat="43.68078" lon="3.69689">
        <ele>155</ele>
        <time>2022-08-03T10:04:33+02:00</time>
      </trkpt>
      <trkpt lat="43.68095" lon="3.69678">
        <ele>155</ele>
        <time>2022-08-03T10:04:47+02:00</time>
      </trkpt>
      <trkpt lat="43.68112" lon="3.69669">
        <ele>155</ele>
        <time>2022-08-03T10:05:01+02:00</time>
      </trkpt>
      <trkpt lat="43.6813" lon="3.69659">
        <ele>155</ele>
        <time>2022-08-03T10:05:17+02:00</time>
      </trkpt>
      <trkpt lat="43.68146" lon="3.69646">
        <ele>155</ele>
        <time>2022-08-03T10:05:33+02:00</time>
      </trkpt>
      <trkpt lat="43.68163" lon="3.69633">
        <ele>155</ele>
        <time>2022-08-03T10:05:48+02:00</time>
      </trkpt>
      <trkpt lat="43.68181" lon="3.69622">
        <ele>155</ele>
        <time>2022-08-03T10:06:03+02:00</time>
      </trkpt>
      <trkpt lat="43.68199" lon="3.69612">
        <ele>155</ele>
        <time>2022-08-03T10:06:19+02:00</time>
      </trkpt>
      <trkpt lat="43.68217" lon="3.69608">
        <ele>155</ele>
        <time>2022-08-03T10:06:35+02:00</time>
      </trkpt>
      <trkpt lat="43.68235" lon="3.69618">
        <ele>155</ele>
        <time>2022-08-03T10:06:51+02:00</time>
      </trkpt>
      <trkpt lat="43.68254" lon="3.69618">
        <ele>155</ele>
        <time>2022-08-03T10:07:06+02:00</time>
      </trkpt>
      <trkpt lat="43.68267" lon="3.69599">
        <ele>155</ele>
        <time>2022-08-03T10:07:21+02:00</time>
      </trkpt>
      <trkpt lat="43.68278" lon="3.69578">
        <ele>155</ele>
        <time>2022-08-03T10:07:37+02:00</time>
      </trkpt>
      <trkpt lat="43.6829" lon="3.69557">
        <ele>155</ele>
        <time>2022-08-03T10:07:53+02:00</time>
      </trkpt>
      <trkpt lat="43.68304" lon="3.69539">
        <ele>155</ele>
        <time>2022-08-03T10:08:07+02:00</time>
      </trkpt>
      <trkpt lat="43.68321" lon="3.69525">
        <ele>155</ele>
        <time>2022-08-03T10:08:22+02:00</time>
      </trkpt>
      <trkpt lat="43.68338" lon="3.69516">
        <ele>155</ele>
        <time>2022-08-03T10:08:37+02:00</time>
      </trkpt>
      <trkpt lat="43.68356" lon="3.69513">
        <ele>155</ele>
        <time>2022-08-03T10:08:51+02:00</time>
      </trkpt>
      <trkpt lat="43.68375" lon="3.69507">
        <ele>155</ele>
        <time>2022-08-03T10:09:07+02:00</time>
      </trkpt>
      <trkpt lat="43.68377" lon="3.69478">
        <ele>155</ele>
        <time>2022-08-03T10:09:33+02:00</time>
      </trkpt>
      <trkpt lat="43.68367" lon="3.69456">
        <ele>155</ele>
        <time>2022-08-03T10:09:50+02:00</time>
      </trkpt>
      <trkpt lat="43.68353" lon="3.69436">
        <ele>156</ele>
        <time>2022-08-03T10:10:07+02:00</time>
      </trkpt>
      <trkpt lat="43.68337" lon="3.69421">
        <ele>158</ele>
        <time>2022-08-03T10:10:24+02:00</time>
      </trkpt>
      <trkpt lat="43.68319" lon="3.69413">
        <ele>159</ele>
        <time>2022-08-03T10:10:43+02:00</time>
      </trkpt>
      <trkpt lat="43.683" lon="3.69407">
        <ele>160</ele>
        <time>2022-08-03T10:10:59+02:00</time>
      </trkpt>
      <trkpt lat="43.68281" lon="3.69399">
        <ele>160</ele>
        <time>2022-08-03T10:11:15+02:00</time>
      </trkpt>
      <trkpt lat="43.68263" lon="3.6939">
        <ele>160</ele>
        <time>2022-08-03T10:11:31+02:00</time>
      </trkpt>
      <trkpt lat="43.68246" lon="3.69377">
        <ele>160</ele>
        <time>2022-08-03T10:11:47+02:00</time>
      </trkpt>
      <trkpt lat="43.68232" lon="3.6936">
        <ele>161</ele>
        <time>2022-08-03T10:12:01+02:00</time>
      </trkpt>
      <trkpt lat="43.68224" lon="3.69337">
        <ele>162</ele>
        <time>2022-08-03T10:12:15+02:00</time>
      </trkpt>
      <trkpt lat="43.6822" lon="3.69311">
        <ele>162</ele>
        <time>2022-08-03T10:12:31+02:00</time>
      </trkpt>
      <trkpt lat="43.68211" lon="3.69287">
        <ele>163</ele>
        <time>2022-08-03T10:12:49+02:00</time>
      </trkpt>
      <trkpt lat="43.682" lon="3.69265">
        <ele>164</ele>
        <time>2022-08-03T10:13:05+02:00</time>
      </trkpt>
      <trkpt lat="43.68185" lon="3.69248">
        <ele>165</ele>
        <time>2022-08-03T10:13:23+02:00</time>
      </trkpt>
      <trkpt lat="43.68184" lon="3.69226">
        <ele>167</ele>
        <time>2022-08-03T10:13:42+02:00</time>
      </trkpt>
      <trkpt lat="43.68191" lon="3.69202">
        <ele>167</ele>
        <time>2022-08-03T10:14:00+02:00</time>
      </trkpt>
      <trkpt lat="43.68207" lon="3.69187">
        <ele>167</ele>
        <time>2022-08-03T10:14:18+02:00</time>
      </trkpt>
      <trkpt lat="43.68214" lon="3.69178">
        <ele>167</ele>
        <time>2022-08-03T10:14:27+02:00</time>
      </trkpt>
    </trkseg>
  </trk>
</gpx>